Terminal Aerodrome Forecast
Issued by NWS

Home | Current Version | Previous Version | Text Only | Print | Product List | Glossary On
Versions: 1 2 3 4 5 6 7 8 9 10 11 12 13 14 15 16 17 18 19
687
FTUS43 KIND 230532
TAFLAF
TAF
KLAF 230532Z 2306/2406 00000KT P6SM FEW110
     FM231100 19004KT P6SM SCT080
     FM231700 22008KT P6SM FEW100
     FM232300 22004KT P6SM SKC
      AMD LTD TO CLD VIS AND WIND TIL 231400=

USA.gov is the U.S. government's official web portal to all federal, state and local government web resources and services.